Time;durP1;ratioP1;P1;durP2;ratioP2;P2;SDS_P1;SDS_P2;PMS_P1;PMS_P2;Temp;Humidity;BMP_temperature;BMP_pressure;BME280_temperature;BME280_humidity;BME280_pressure;Samples;Min_cycle;Max_cycle;Signal;HPM_P1;HPM_P2
2022/01/26 05:10:19;;;;;;;66.93;37.03;;;;;;;2.91;66.45;101609.63;5603375;31;75944;-57
2022/01/26 05:13:21;;;;;;;69.57;38.20;;;;;;;2.91;66.45;101609.63;5584734;31;33295;-58
2022/01/26 05:16:24;;;;;;;62.00;35.45;;;;;;;2.35;67.20;101602.66;5593481;31;34101;-58
2022/01/26 05:19:27;;;;;;;67.05;39.17;;;;;;;2.13;70.69;101609.87;5583486;32;33709;-58
2022/01/26 05:22:31;;;;;;;69.93;39.85;;;;;;;2.17;67.81;101605.84;5583452;31;33542;-57
2022/01/26 05:25:34;;;;;;;60.88;36.75;;;;;;;2.10;68.10;101618.22;5583645;31;34391;-57
2022/01/26 05:28:36;;;;;;;63.53;38.40;;;;;;;2.12;69.14;101608.25;5577958;32;33691;-58
2022/01/26 05:31:38;;;;;;;66.87;40.45;;;;;;;2.05;69.87;101612.66;5591542;31;33543;-58
2022/01/26 05:34:41;;;;;;;67.35;37.90;;;;;;;2.19;67.23;101603.81;5586431;31;33549;-58
2022/01/26 05:37:43;;;;;;;64.82;38.75;;;;;;;2.51;70.39;101607.63;5579234;31;33652;-58
2022/01/26 05:40:46;;;;;;;63.17;38.88;;;;;;;2.26;68.10;101607.31;5598611;31;33630;-58
2022/01/26 05:43:48;;;;;;;62.97;36.20;;;;;;;2.24;67.37;101606.69;5594032;31;33725;-58
2022/01/26 05:46:51;;;;;;;61.85;38.15;;;;;;;2.21;73.93;101615.00;5583477;32;34270;-58
2022/01/26 05:49:53;;;;;;;67.05;37.45;;;;;;;2.19;67.45;101613.59;5590584;31;33592;-57
2022/01/26 05:52:55;;;;;;;57.70;35.53;;;;;;;2.18;75.32;101625.97;5602694;31;33543;-58
2022/01/26 05:55:58;;;;;;;64.75;38.33;;;;;;;2.10;73.55;101615.56;5593869;31;33604;-58
2022/01/26 05:59:00;;;;;;;62.88;38.38;;;;;;;2.38;67.37;101625.28;5583379;32;34159;-58
2022/01/26 06:02:04;;;;;;;64.57;38.05;;;;;;;2.37;71.05;101624.47;5582947;32;33876;-58
2022/01/26 06:05:07;;;;;;;63.60;38.88;;;;;;;2.40;69.75;101616.16;5581368;31;34249;-57
2022/01/26 06:08:09;;;;;;;63.80;37.95;;;;;;;2.42;68.00;101626.53;5564776;32;33533;-58
2022/01/26 06:11:11;;;;;;;65.87;40.30;;;;;;;2.37;77.74;101627.13;5583362;32;33503;-58
2022/01/26 06:14:14;;;;;;;63.65;40.40;;;;;;;2.38;72.04;101623.44;5597663;31;33770;-58
2022/01/26 06:17:16;;;;;;;66.40;40.30;;;;;;;2.30;72.33;101626.28;5602729;31;33676;-58
2022/01/26 06:20:18;;;;;;;72.07;40.00;;;;;;;2.21;74.21;101622.94;5595338;31;34208;-58
2022/01/26 06:23:24;;;;;;;65.93;37.75;;;;;;;2.25;68.05;101632.16;5577077;31;33666;-57
2022/01/26 06:26:27;;;;;;;66.53;40.17;;;;;;;2.15;74.88;101631.66;5568978;32;34194;-58
2022/01/26 06:29:31;;;;;;;72.70;38.83;;;;;;;2.20;68.64;101636.38;5569296;32;34288;-58
2022/01/26 06:32:34;;;;;;;66.68;40.03;;;;;;;2.23;68.33;101630.72;5569471;32;33702;-57
2022/01/26 06:35:38;;;;;;;71.80;39.97;;;;;;;2.22;69.55;101629.06;5569816;32;33692;-60
2022/01/26 06:38:42;;;;;;;69.15;39.45;;;;;;;2.13;70.51;101631.06;5570981;31;33621;-60
2022/01/26 06:41:54;;;;;;;64.95;40.20;;;;;;;2.16;69.64;101632.50;5556251;32;32640;-60
2022/01/26 06:48:37;;;;;;;63.45;39.75;;;;;;;2.49;68.59;101620.28;5551853;32;33657;-60
2022/01/26 06:51:34;;;;;;;66.80;39.03;;;;;;;2.45;69.06;101637.56;5579287;31;34181;-60
2022/01/26 06:54:40;;;;;;;69.37;39.45;;;;;;;2.54;69.21;101635.56;5560496;31;33162;-60
2022/01/26 06:57:43;;;;;;;68.28;38.13;;;;;;;2.64;71.70;101630.72;5568631;32;34188;-60
2022/01/26 07:00:46;;;;;;;64.50;39.03;;;;;;;2.84;77.15;101636.09;5568781;32;33627;-60
2022/01/26 07:03:48;;;;;;;66.65;40.70;;;;;;;3.05;68.61;101633.34;5567317;32;33700;-60
2022/01/26 07:06:50;;;;;;;47.30;28.83;;;;;;;3.06;68.83;101636.78;5568834;31;33596;-60
2022/01/26 07:09:52;;;;;;;40.47;24.15;;;;;;;3.20;71.49;101627.03;5562397;32;33218;-60
2022/01/26 07:12:55;;;;;;;34.45;21.77;;;;;;;3.53;72.58;101627.91;5552078;32;33648;-60
2022/01/26 07:20:33;;;;;;;25.35;18.35;;;;;;;4.10;71.96;101622.16;5567246;32;33755;-60
2022/01/26 07:22:44;;;;;;;28.20;18.23;;;;;;;4.21;70.77;101627.69;5560275;32;33658;-59
2022/01/26 07:25:47;;;;;;;27.40;18.33;;;;;;;4.54;74.95;101621.47;5560531;31;33343;-60
2022/01/26 07:28:49;;;;;;;26.55;18.05;;;;;;;4.70;69.88;101617.50;5564140;32;33552;-61
2022/01/26 07:31:52;;;;;;;24.63;16.33;;;;;;;4.73;71.53;101609.13;5561582;32;33631;-60
2022/01/26 07:34:54;;;;;;;28.45;17.60;;;;;;;4.87;68.43;101615.22;5568591;32;34290;-59
2022/01/26 07:37:59;;;;;;;25.23;17.12;;;;;;;5.06;67.92;101610.81;5550662;32;33726;-59
2022/01/26 07:41:01;;;;;;;25.20;16.92;;;;;;;5.10;67.89;101609.34;5561310;31;33706;-60
2022/01/26 07:44:05;;;;;;;25.73;18.17;;;;;;;5.12;69.03;101610.75;5565622;32;33655;-60
2022/01/26 07:47:08;;;;;;;27.75;17.52;;;;;;;5.37;67.61;101607.34;5568181;31;33622;-60
2022/01/26 07:50:13;;;;;;;23.48;18.02;;;;;;;5.33;67.28;101612.28;5567662;32;33684;-60
2022/01/26 07:53:16;;;;;;;48.63;30.58;;;;;;;5.42;66.49;101618.97;5567224;32;33556;-61
2022/01/26 07:56:18;;;;;;;66.37;34.97;;;;;;;5.40;66.21;101622.88;5563067;31;33616;-60
2022/01/26 07:59:20;;;;;;;50.22;30.42;;;;;;;5.45;66.20;101616.91;5564759;31;33577;-60
2022/01/26 08:02:23;;;;;;;24.10;14.27;;;;;;;6.01;79.92;101621.38;5556722;32;34355;-60
2022/01/26 08:05:27;;;;;;;21.73;14.63;;;;;;;6.01;64.13;101610.75;5558095;31;34417;-59
2022/01/26 08:08:30;;;;;;;23.67;15.60;;;;;;;6.27;65.56;101607.00;5565587;31;33412;-60
2022/01/26 08:11:32;;;;;;;30.73;21.33;;;;;;;5.82;64.64;101605.34;5570948;31;34282;-60
2022/01/26 08:14:35;;;;;;;31.35;20.05;;;;;;;5.65;65.79;101610.41;5573870;31;33617;-60
2022/01/26 08:17:38;;;;;;;26.00;17.60;;;;;;;5.71;67.30;101607.91;5550534;32;33573;-61
2022/01/26 08:20:41;;;;;;;25.35;16.58;;;;;;;5.85;66.40;101615.56;5561484;32;33555;-61
2022/01/26 08:23:44;;;;;;;20.33;13.23;;;;;;;5.84;63.85;101610.47;5561580;32;33594;-60
2022/01/26 08:26:49;;;;;;;16.70;12.15;;;;;;;5.78;64.70;101608.66;5579098;31;33572;-60
2022/01/26 08:29:57;;;;;;;19.40;13.00;;;;;;;5.86;64.05;101606.56;5577476;31;34237;-60
2022/01/26 08:33:00;;;;;;;17.17;11.82;;;;;;;6.29;70.12;101611.09;5555777;32;33721;-59
2022/01/26 08:36:03;;;;;;;17.77;12.73;;;;;;;6.25;62.39;101609.87;5552522;32;33791;-60
2022/01/26 08:39:05;;;;;;;17.00;13.00;;;;;;;6.14;62.68;101609.81;5567529;31;34179;-60
2022/01/26 08:42:08;;;;;;;20.15;13.15;;;;;;;6.53;73.11;101605.91;5569042;31;33683;-60
2022/01/26 08:45:10;;;;;;;18.73;12.37;;;;;;;6.99;70.40;101620.50;5566824;32;33822;-60
2022/01/26 08:48:14;;;;;;;18.55;13.07;;;;;;;6.77;61.08;101620.16;5567648;32;33674;-59
2022/01/26 08:51:18;;;;;;;18.58;12.35;;;;;;;6.53;65.65;101621.88;5564024;31;33002;-60
2022/01/26 08:54:22;;;;;;;16.33;11.90;;;;;;;6.93;67.45;101618.72;5572116;31;33598;-60
2022/01/26 08:57:24;;;;;;;16.83;11.40;;;;;;;6.93;60.03;101619.53;5556777;31;33541;-60
2022/01/26 09:00:27;;;;;;;18.10;11.10;;;;;;;7.32;64.82;101625.38;5557077;31;34348;-60
2022/01/26 09:03:34;;;;;;;16.17;11.35;;;;;;;7.12;61.96;101619.47;5571501;31;33829;-60
2022/01/26 09:06:49;;;;;;;15.43;10.82;;;;;;;7.45;71.45;101625.16;5566878;31;33699;-58
2022/01/26 09:09:55;;;;;;;17.37;10.80;;;;;;;7.63;61.23;101629.59;5565373;32;33761;-57
2022/01/26 09:12:57;;;;;;;14.82;10.50;;;;;;;7.33;62.78;101626.19;5560580;31;34356;-58
2022/01/26 09:16:03;;;;;;;15.10;10.27;;;;;;;7.37;62.08;101625.47;5551222;31;33159;-57
2022/01/26 09:19:13;;;;;;;16.83;11.15;;;;;;;7.11;59.37;101626.66;5551739;31;33361;-58
2022/01/26 09:22:17;;;;;;;18.08;10.73;;;;;;;6.86;61.76;101629.47;5568853;31;33586;-57
2022/01/26 09:25:19;;;;;;;16.98;12.18;;;;;;;6.62;58.94;101622.38;5554922;31;33243;-57
2022/01/26 09:28:22;;;;;;;17.42;12.25;;;;;;;6.54;62.21;101618.97;5557412;32;34271;-58
2022/01/26 09:31:25;;;;;;;18.08;11.50;;;;;;;6.88;64.80;101619.38;5569245;31;33648;-57
2022/01/26 09:34:30;;;;;;;16.42;11.77;;;;;;;6.78;66.12;101616.44;5551836;31;33658;-57
2022/01/26 09:37:33;;;;;;;18.17;12.02;;;;;;;6.88;59.72;101623.91;5564147;32;33762;-57
2022/01/26 09:40:35;;;;;;;16.92;11.05;;;;;;;6.86;65.52;101615.34;5565584;31;34201;-57
2022/01/26 09:43:39;;;;;;;16.17;10.77;;;;;;;7.12;65.23;101603.47;5558544;31;34326;-58
2022/01/26 09:46:42;;;;;;;18.27;11.95;;;;;;;6.85;58.62;101603.03;5557984;31;33248;-57
2022/01/26 09:49:45;;;;;;;15.10;10.77;;;;;;;6.70;59.03;101604.25;5554432;31;33578;-57
2022/01/26 09:52:48;;;;;;;16.65;11.38;;;;;;;6.83;66.46;101600.59;5562762;31;33717;-57
2022/01/26 09:55:50;;;;;;;18.17;10.05;;;;;;;7.34;70.16;101596.59;5568310;32;33667;-57
2022/01/26 09:58:53;;;;;;;14.52;10.13;;;;;;;7.39;57.66;101598.59;5564825;31;33842;-57
2022/01/26 10:01:55;;;;;;;16.50;10.35;;;;;;;7.05;57.78;101599.06;5554077;32;33837;-58
2022/01/26 10:05:04;;;;;;;15.13;10.15;;;;;;;7.47;66.79;101598.25;5555644;31;33535;-58
2022/01/26 10:18:03;;;;;;;16.70;9.57;;;;;;;7.40;58.19;101585.00;5572758;31;34361;-57
2022/01/26 10:21:08;;;;;;;14.75;10.10;;;;;;;7.43;69.06;101583.75;5565805;32;33148;-58
2022/01/26 10:24:11;;;;;;;13.48;9.07;;;;;;;7.54;60.86;101578.41;5560806;31;33710;-57
2022/01/26 10:27:13;;;;;;;14.85;10.10;;;;;;;7.44;58.71;101575.50;5573648;31;33557;-57
2022/01/26 10:30:18;;;;;;;19.92;9.75;;;;;;;7.46;57.46;101573.44;5561238;31;34414;-58
2022/01/26 10:33:20;;;;;;;16.48;9.70;;;;;;;7.22;57.43;101579.75;5565216;31;34249;-57
2022/01/26 10:36:35;;;;;;;13.43;9.95;;;;;;;7.24;57.64;101564.31;5565593;31;34479;-57
2022/01/26 10:39:44;;;;;;;15.98;9.18;;;;;;;6.90;58.13;101566.66;5568103;32;34117;-58
2022/01/26 10:43:08;;;;;;;14.87;9.63;;;;;;;6.96;58.52;101562.28;5565114;32;34071;-57
2022/01/26 10:46:44;;;;;;;15.52;10.13;;;;;;;7.04;63.50;101561.97;5550562;32;34261;-57
2022/01/26 10:52:55;;;;;;;23.00;10.18;;;;;;;6.07;61.16;101553.97;5558467;32;34253;-58
2022/01/26 10:55:57;;;;;;;17.95;11.23;;;;;;;6.07;61.87;101549.44;5550265;32;33593;-57
2022/01/26 10:59:00;;;;;;;16.60;10.73;;;;;;;6.13;61.34;101553.09;5562062;32;34310;-57
2022/01/26 11:02:04;;;;;;;17.50;10.70;;;;;;;6.07;60.98;101560.09;5550081;32;34354;-57
2022/01/26 11:05:09;;;;;;;15.00;10.23;;;;;;;6.07;61.12;101553.97;5550810;32;34330;-58
2022/01/26 11:08:12;;;;;;;20.58;11.27;;;;;;;6.26;61.03;101547.59;5567796;32;33619;-57
2022/01/26 11:11:23;;;;;;;20.15;10.40;;;;;;;6.29;60.72;101544.50;5561555;32;33652;-58
2022/01/26 11:14:25;;;;;;;17.48;9.52;;;;;;;6.43;61.36;101539.81;5577805;31;33708;-57
2022/01/26 11:17:35;;;;;;;15.35;10.13;;;;;;;6.26;60.34;101538.81;5565652;31;34242;-57
2022/01/26 11:20:50;;;;;;;16.95;11.15;;;;;;;6.19;61.22;101540.72;5563764;31;34350;-57
2022/01/26 11:24:09;;;;;;;16.20;10.65;;;;;;;6.33;61.36;101540.34;5550578;32;33756;-57
2022/01/26 11:27:13;;;;;;;13.13;9.50;;;;;;;6.30;60.36;101559.44;5555711;31;33699;-57
2022/01/26 11:30:24;;;;;;;15.15;10.23;;;;;;;6.15;61.44;101550.19;5566458;31;33709;-57
2022/01/26 11:33:29;;;;;;;15.20;10.05;;;;;;;6.25;60.45;101539.81;5556098;31;34140;-58
2022/01/26 11:36:32;;;;;;;16.80;10.07;;;;;;;6.15;61.16;101537.69;5564997;31;33552;-57
2022/01/26 11:46:12;;;;;;;14.57;10.00;;;;;;;6.34;59.73;101523.31;5564243;32;34332;-58
2022/01/26 11:49:25;;;;;;;15.60;9.07;;;;;;;6.26;59.78;101528.16;5551781;32;33767;-58
2022/01/26 11:52:35;;;;;;;15.73;9.70;;;;;;;6.22;61.10;101529.63;5566684;31;33717;-58
2022/01/26 11:55:57;;;;;;;16.12;9.15;;;;;;;6.24;59.99;101520.38;5558778;31;34248;-58
2022/01/26 11:58:59;;;;;;;16.58;9.75;;;;;;;6.25;60.48;101524.66;5562126;32;33663;-58
2022/01/26 12:02:08;;;;;;;16.50;9.20;;;;;;;6.20;60.67;101519.22;5556926;32;33638;-58
2022/01/26 12:05:14;;;;;;;14.87;9.40;;;;;;;6.23;60.59;101526.75;5554335;32;33625;-57
2022/01/26 12:08:38;;;;;;;15.52;10.60;;;;;;;6.48;59.58;101521.31;5565218;32;33749;-58
2022/01/26 12:11:42;;;;;;;14.63;9.95;;;;;;;6.45;59.36;101524.41;5565654;31;34434;-58
2022/01/26 12:14:58;;;;;;;16.02;10.10;;;;;;;6.16;60.17;101515.37;5564836;32;33771;-58
2022/01/26 12:34:47;;;;;;;16.08;9.75;;;;;;;6.92;59.79;101495.28;5562100;32;33789;-58
2022/01/26 12:37:56;;;;;;;15.27;10.15;;;;;;;6.72;59.12;101494.75;5554003;32;33716;-58
2022/01/26 12:44:22;;;;;;;16.27;10.18;;;;;;;6.96;58.46;101491.13;5557776;32;33671;-58
2022/01/26 12:47:28;;;;;;;16.52;10.25;;;;;;;6.95;58.77;101481.47;5563665;32;33620;-58
2022/01/26 12:50:31;;;;;;;16.65;9.85;;;;;;;6.86;60.22;101472.22;5563927;32;33693;-58
2022/01/26 12:53:35;;;;;;;15.82;10.30;;;;;;;7.02;58.41;101476.06;5556626;32;33639;-58
2022/01/26 12:56:38;;;;;;;13.95;9.23;;;;;;;6.90;58.60;101480.56;5557606;31;33631;-58
2022/01/26 12:59:41;;;;;;;15.25;8.18;;;;;;;7.02;58.50;101476.88;5567566;32;34582;-58
2022/01/26 13:02:44;;;;;;;15.38;9.88;;;;;;;6.90;58.92;101469.91;5552037;31;33733;-58
2022/01/26 13:05:46;;;;;;;15.68;9.63;;;;;;;6.90;58.90;101472.56;5564300;31;32232;-60
2022/01/26 13:08:51;;;;;;;15.38;10.07;;;;;;;6.91;59.05;101474.19;5559697;31;33617;-61
2022/01/26 13:11:55;;;;;;;16.30;10.70;;;;;;;6.94;59.39;101469.19;5561560;31;33386;-58
2022/01/26 13:15:05;;;;;;;17.02;9.55;;;;;;;6.93;58.90;101478.25;5563097;32;34406;-57
2022/01/26 13:18:18;;;;;;;12.40;8.70;;;;;;;7.10;58.12;101475.72;5566895;32;34364;-58
2022/01/26 13:22:25;;;;;;;13.35;8.30;;;;;;;7.11;57.47;101476.53;5561000;32;34330;-57
2022/01/26 13:40:52;;;;;;;14.07;9.48;;;;;;;6.57;58.58;101482.66;5555367;32;33378;-58
2022/01/26 13:47:38;;;;;;;12.43;8.05;;;;;;;6.73;58.53;101473.22;5561144;32;33747;-58
2022/01/26 13:54:11;;;;;;;11.55;8.30;;;;;;;6.73;58.52;101475.06;5550814;32;33212;-59
2022/01/26 14:00:41;;;;;;;16.08;9.93;;;;;;;6.66;58.79;101485.03;5561690;31;33741;-58
2022/01/26 14:03:48;;;;;;;14.27;8.38;;;;;;;6.37;58.82;101474.13;5569329;32;34826;-58
2022/01/26 14:06:50;;;;;;;12.73;8.77;;;;;;;6.41;58.99;101469.97;5568885;32;34352;-58
2022/01/26 14:09:52;;;;;;;13.75;9.50;;;;;;;6.53;59.33;101475.38;5568586;32;33731;-58
2022/01/26 14:12:56;;;;;;;14.98;8.48;;;;;;;6.46;60.17;101464.00;5569322;32;34063;-58
2022/01/26 14:15:59;;;;;;;13.90;8.60;;;;;;;6.59;59.06;101471.78;5569921;32;34280;-58
2022/01/26 14:22:38;;;;;;;12.88;8.63;;;;;;;6.72;68.35;101470.75;5538267;32;33565;-58
2022/01/26 14:25:43;;;;;;;14.02;9.38;;;;;;;6.96;59.13;101463.66;5579760;31;33791;-58
2022/01/26 14:28:45;;;;;;;15.27;9.00;;;;;;;6.98;58.50;101465.03;5589197;31;33742;-58
2022/01/26 14:32:47;;;;;;;15.27;10.07;;;;;;;6.78;58.35;101462.66;5562031;31;33456;-57
2022/01/26 14:35:45;;;;;;;15.18;9.13;;;;;;;6.65;58.49;101478.03;5583220;31;34077;-58
2022/01/26 15:48:48;;;;;;;18.15;11.12;;;;;;;6.18;60.04;101491.97;5569043;32;33607;-58
2022/01/26 15:58:44;;;;;;;19.48;11.10;;;;;;;5.96;60.58;101507.59;5565331;32;33643;-58
2022/01/26 16:08:27;;;;;;;18.67;11.45;;;;;;;6.18;69.33;101510.63;5549713;32;33511;-58
2022/01/26 16:19:40;;;;;;;16.80;10.80;;;;;;;6.68;68.66;101521.03;5568915;32;33772;-57
2022/01/26 16:36:42;;;;;;;18.62;12.57;;;;;;;6.83;61.35;101510.78;5487835;32;33347;-58
